Anne Sibum — C4YC2 — position and weather

sailwx.info

Track history (hours):
 
Tides and Currents Weather Stations Pressure Air Temp Water Temp Dewpoint Dewpoint Depression Visibility Wind Speed Wind Dir Waves Ship Positions

Anne Sibum

Last reported at 2016-Feb-08 05:33 UTC. Time now 2016-Feb-08 06:12 UTC.
Position N 51°54' W 008°25'.

Length 151 m; draft 8.3 m.

Type: Ship (hazmat cat A). MMSI: 209322000.

Date/timePositionNaut miles runAvg speedWind from/ knotsBaromVisibWave heightAir tempDewpointWater temp
2016-Feb-08 05:33N 51°54' W 008°25'0 0.0
2016-Feb-08 04:32N 51°54' W 008°25'0 0.0
2016-Feb-08 03:32N 51°54' W 008°25'0 0.0
2016-Feb-08 02:32N 51°54' W 008°25'0 0.0
2016-Feb-08 01:31N 51°54' W 008°25'0 0.0
2016-Feb-08 00:31N 51°54' W 008°25'0 0.0
2016-Feb-07 23:30N 51°54' W 008°25'0 0.0
2016-Feb-07 22:33N 51°54' W 008°25'0 0.0
2016-Feb-07 21:32N 51°54' W 008°25'0 0.0
2016-Feb-07 20:32N 51°54' W 008°25'0 0.0
2016-Feb-07 19:32N 51°54' W 008°25'0 0.0
2016-Feb-07 18:31N 51°54' W 008°25'0 0.0
2016-Feb-07 17:31N 51°54' W 008°25'0 0.0
2016-Feb-07 16:33N 51°54' W 008°25'0 0.0
2016-Feb-07 15:33N 51°54' W 008°25'0 0.0
2016-Feb-07 14:32N 51°54' W 008°25'0 0.0
2016-Feb-07 13:32N 51°54' W 008°25'0 0.0
2016-Feb-07 12:31N 51°54' W 008°25'0 0.0
2016-Feb-07 11:31N 51°54' W 008°25'0 0.0
2016-Feb-07 10:31N 51°54' W 008°25'0 0.0
2016-Feb-07 09:33N 51°54' W 008°25'0 0.0
2016-Feb-07 08:33N 51°54' W 008°25'0 0.0
2016-Feb-07 07:29N 51°54' W 008°25'0 0.0
2016-Feb-07 06:32N 51°54' W 008°25'0 0.0
2016-Feb-07 05:28N 51°54' W 008°25'0 0.0
2016-Feb-07 04:31N 51°54' W 008°25'0 0.0
2016-Feb-07 03:28N 51°54' W 008°25'0 0.0
2016-Feb-07 02:33N 51°54' W 008°25'0 0.0
2016-Feb-07 01:33N 51°54' W 008°25'0 0.0
2016-Feb-07 00:32N 51°54' W 008°25'0 0.0
2016-Feb-06 23:33N 51°54' W 008°25'0 0.0
2016-Feb-06 22:33N 51°54' W 008°25'0 0.0
2016-Feb-06 21:33N 51°54' W 008°25'0 0.0
2016-Feb-06 20:33N 51°54' W 008°25'0 0.0
2016-Feb-06 19:33N 51°54' W 008°25'0 0.0
2016-Feb-06 18:34N 51°54' W 008°25'0 0.0
2016-Feb-06 17:33N 51°54' W 008°25'4 3.9
2016-Feb-06 16:33N 51°52' W 008°20'6 6.2
2016-Feb-06 15:33N 51°46' W 008°15'1 1.0
2016-Feb-06 14:33N 51°46' W 008°17'0 0.0
2016-Feb-06 13:34N 51°46' W 008°17'0 0.0
2016-Feb-06 12:33N 51°46' W 008°17'0 0.1
2016-Feb-06 11:34N 51°46' W 008°17'0 0.0
2016-Feb-06 10:34N 51°46' W 008°17'0 0.0
2016-Feb-06 09:33N 51°46' W 008°17'0 0.0
2016-Feb-06 08:34N 51°46' W 008°17'0 0.0
2016-Feb-06 07:34N 51°46' W 008°17'0 0.0
2016-Feb-06 06:33N 51°46' W 008°17'0 0.0
2016-Feb-06 05:34N 51°46' W 008°17'1 0.6
2016-Feb-06 04:33N 51°47' W 008°16'1212.2
2016-Feb-06 03:34N 51°38' W 008°03'1413.5
2016-Feb-06 02:33N 51°28' W 007°47'27011.5
2016-Feb-05 03:04N 50°26' W 000°49'814.9
2016-Feb-05 02:33N 50°28' W 000°37'2115.3
2016-Feb-05 01:11N 50°31' W 000°05'1015.7
2016-Feb-05 00:33N 50°34' E 000°10'4515.1
2016-Feb-04 21:33N 50°56' E 001°13'1413.7
2016-Feb-04 20:34N 51°05' E 001°28'1414.2
2016-Feb-04 19:33N 51°14' E 001°46'1515.1
2016-Feb-04 18:34N 51°27' E 001°59'1615.7
2016-Feb-04 17:32N 51°39' E 002°17'5413.5
2016-Feb-04 13:31N 52°03' E 003°35'1313.1
2016-Feb-04 12:33N 52°02' E 003°56'8 8.0
2016-Feb-04 11:33N 51°58' E 004°07'1010.2
2016-Feb-04 10:33N 51°54' E 004°22'2 1.9
2016-Feb-04 09:31N 51°53' E 004°25'0 0.0
2016-Feb-04 08:33N 51°53' E 004°25'0 0.0
2016-Feb-04 07:30N 51°53' E 004°25'0 0.0
2016-Feb-04 06:32N 51°53' E 004°25'0 0.0
2016-Feb-04 05:32N 51°53' E 004°25'0 0.0
2016-Feb-04 04:32N 51°53' E 004°25'0 0.0
2016-Feb-04 03:31N 51°53' E 004°25'0 0.0
2016-Feb-04 02:31N 51°53' E 004°25'0 0.0
2016-Feb-04 01:33N 51°53' E 004°25'0 0.0
2016-Feb-04 00:33N 51°53' E 004°25'0 0.0
2016-Feb-03 23:29N 51°53' E 004°25'0 0.0
2016-Feb-03 22:32N 51°53' E 004°25'0 0.0
2016-Feb-03 21:32N 51°53' E 004°25'0 0.4
2016-Feb-03 20:33N 51°53' E 004°24'9 9.5
2016-Feb-03 19:33N 51°57' E 004°10'5 4.7
2016-Feb-03 18:33N 51°57' E 004°03'0 0.0
2016-Feb-03 17:33N 51°57' E 004°03'0 0.0
2016-Feb-03 16:32N 51°57' E 004°03'0 0.0
2016-Feb-03 15:32N 51°57' E 004°03'0 0.0
2016-Feb-03 14:31N 51°57' E 004°03'0 0.0
2016-Feb-03 13:28N 51°57' E 004°03'0 0.0
2016-Feb-03 12:33N 51°57' E 004°03'0 0.0
2016-Feb-03 11:33N 51°57' E 004°03'0 0.0
2016-Feb-03 10:32N 51°57' E 004°03'2 1.8
2016-Feb-03 09:33N 51°58' E 003°60'1 0.6
2016-Feb-03 08:31N 51°57' E 004°00'0 0.0
2016-Feb-03 07:21N 51°57' E 004°00'0 0.0
2016-Feb-03 06:33N 51°57' E 004°00'0 0.0
2016-Feb-03 05:33N 51°57' E 004°00'0 0.1
2016-Feb-03 04:33N 51°57' E 004°00'2 2.3
2016-Feb-03 03:34N 51°57' E 004°04'0 0.0
2016-Feb-03 02:28N 51°57' E 004°04'0 0.0
2016-Feb-03 01:31N 51°57' E 004°04'0 0.0
2016-Feb-03 00:33N 51°57' E 004°04'0 0.0
2016-Feb-02 23:33N 51°57' E 004°04'0 0.0
2016-Feb-02 22:32N 51°57' E 004°04'0 0.0
2016-Feb-02 21:32N 51°57' E 004°04'1 0.6
2016-Feb-02 20:33N 51°57' E 004°05'1 1.3
2016-Feb-02 19:31N 51°58' E 004°03'0 0.0
2016-Feb-02 18:30N 51°58' E 004°03'0 0.0
2016-Feb-02 17:30N 51°58' E 004°03'0 0.0
2016-Feb-02 16:32N 51°58' E 004°03'0 0.0
2016-Feb-02 15:32N 51°58' E 004°03'0 0.0
2016-Feb-02 14:29N 51°58' E 004°03'0 0.0
2016-Feb-02 13:28N 51°58' E 004°03'0 0.0
2016-Feb-02 12:31N 51°58' E 004°03'0 0.0
2016-Feb-02 11:33N 51°58' E 004°03'0 0.0
2016-Feb-02 10:33N 51°58' E 004°03'0 0.0
2016-Feb-02 09:32N 51°58' E 004°03'0 0.0
2016-Feb-02 08:32N 51°58' E 004°03'0 0.0
2016-Feb-02 07:34N 51°58' E 004°03'5 5.3
2016-Feb-02 06:34N 51°57' E 004°12'8 8.5
2016-Feb-02 05:33N 51°53' E 004°24'1 0.6
2016-Feb-02 04:34N 51°53' E 004°25'0 0.0
2016-Feb-02 03:31N 51°53' E 004°25'0 0.0
2016-Feb-02 02:31N 51°53' E 004°25'0 0.0
2016-Feb-02 01:30N 51°53' E 004°25'0 0.0
2016-Feb-02 00:33N 51°53' E 004°25'0 0.0
2016-Feb-01 23:33N 51°53' E 004°25'0 0.0
2016-Feb-01 22:32N 51°53' E 004°25'0 0.0
2016-Feb-01 21:32N 51°53' E 004°25'0 0.0
2016-Feb-01 20:28N 51°53' E 004°25'0 0.0
2016-Feb-01 19:31N 51°53' E 004°25'0 0.0
2016-Feb-01 18:33N 51°53' E 004°25'0 0.0
2016-Feb-01 17:33N 51°53' E 004°25'0 0.0
2016-Feb-01 16:33N 51°53' E 004°25'1 0.7
2016-Feb-01 15:33N 51°53' E 004°24'7 7.2
2016-Feb-01 14:33N 51°56' E 004°13'1110.8
2016-Feb-01 13:33N 51°60' E 003°57'1010.0
2016-Feb-01 12:33N 51°58' E 003°41'5010.0
2016-Feb-01 07:33N 51°38' E 002°27'1515.0
2016-Feb-01 06:33N 51°27' E 002°12'1515.0
2016-Feb-01 05:34N 51°13' E 002°01'1616.2
2016-Feb-01 04:34N 51°03' E 001°41'1616.0
2016-Feb-01 03:33N 50°50' E 001°26'34312.1
2016-Jan-30 23:08N 51°22' W 007°39'814.5
2016-Jan-30 22:34N 51°28' W 007°48'1514.5
2016-Jan-30 21:34N 51°38' W 008°04'1312.7
2016-Jan-30 20:34N 51°48' W 008°16'8 7.7
2016-Jan-30 19:34N 51°54' W 008°24'0 0.4
2016-Jan-30 18:32N 51°54' W 008°25'0 0.0
2016-Jan-30 17:32N 51°54' W 008°25'0 0.0
2016-Jan-30 16:28N 51°54' W 008°25'0 0.0
2016-Jan-30 15:31N 51°54' W 008°25'0 0.0
2016-Jan-30 14:33N 51°54' W 008°25'0 0.0
2016-Jan-30 13:33N 51°54' W 008°25'0 0.0
2016-Jan-30 12:32N 51°54' W 008°25'0 0.0
2016-Jan-30 11:32N 51°54' W 008°25'0 0.0
2016-Jan-30 10:31N 51°54' W 008°25'0 0.0
2016-Jan-30 09:31N 51°54' W 008°25'0 0.0
2016-Jan-30 08:31N 51°54' W 008°25'0 0.0
2016-Jan-30 07:33N 51°54' W 008°25'0 0.0
2016-Jan-30 06:33N 51°54' W 008°25'0 0.0
2016-Jan-30 05:32N 51°54' W 008°25'0 0.0
2016-Jan-30 04:32N 51°54' W 008°25'0 0.0
2016-Jan-30 03:31N 51°54' W 008°25'0 0.0
2016-Jan-30 02:31N 51°54' W 008°25'0 0.0
2016-Jan-30 01:31N 51°54' W 008°25'0 0.0
2016-Jan-30 00:33N 51°54' W 008°25'0 0.0
2016-Jan-29 23:33N 51°54' W 008°25'0 0.0
2016-Jan-29 22:32N 51°54' W 008°25'0 0.0
2016-Jan-29 21:32N 51°54' W 008°25'0 0.0
2016-Jan-29 20:31N 51°54' W 008°25'0 0.0
2016-Jan-29 19:31N 51°54' W 008°25'0 0.0
2016-Jan-29 18:31N 51°54' W 008°25'0 0.0
2016-Jan-29 17:30N 51°54' W 008°25'0 0.0
2016-Jan-29 16:33N 51°54' W 008°25'0 0.0
2016-Jan-29 15:32N 51°54' W 008°25'0 0.0
2016-Jan-29 14:32N 51°54' W 008°25'0 0.0
2016-Jan-29 13:31N 51°54' W 008°25'0 0.0
2016-Jan-29 12:31N 51°54' W 008°25'0 0.0
2016-Jan-29 11:31N 51°54' W 008°25'0 0.0
2016-Jan-29 10:33N 51°54' W 008°25'0 0.0
2016-Jan-29 09:33N 51°54' W 008°25'0 0.0
2016-Jan-29 08:32N 51°54' W 008°25'0 0.0
2016-Jan-29 07:32N 51°54' W 008°25'0 0.0
2016-Jan-29 06:31N 51°54' W 008°25'  
Track history (hours):
 
Tides and Currents Weather Stations Pressure Air Temp Water Temp Dewpoint Dewpoint Depression Visibility Wind Speed Wind Dir Waves Ship Positions

Anne Sibum

Last reported at 2016-Feb-08 05:33 UTC. Time now 2016-Feb-08 06:12 UTC.
Position N 51°54' W 008°25'.

Length 151 m; draft 8.3 m.

Type: Ship (hazmat cat A). MMSI: 209322000.

Date/timePositionNaut miles runAvg speedWind from/ knotsBaromVisibWave heightAir tempDewpointWater temp
2016-Feb-08 05:33N 51°54' W 008°25'0 0.0
2016-Feb-08 04:32N 51°54' W 008°25'0 0.0
2016-Feb-08 03:32N 51°54' W 008°25'0 0.0
2016-Feb-08 02:32N 51°54' W 008°25'0 0.0
2016-Feb-08 01:31N 51°54' W 008°25'0 0.0
2016-Feb-08 00:31N 51°54' W 008°25'0 0.0
2016-Feb-07 23:30N 51°54' W 008°25'0 0.0
2016-Feb-07 22:33N 51°54' W 008°25'0 0.0
2016-Feb-07 21:32N 51°54' W 008°25'0 0.0
2016-Feb-07 20:32N 51°54' W 008°25'0 0.0
2016-Feb-07 19:32N 51°54' W 008°25'0 0.0
2016-Feb-07 18:31N 51°54' W 008°25'0 0.0
2016-Feb-07 17:31N 51°54' W 008°25'0 0.0
2016-Feb-07 16:33N 51°54' W 008°25'0 0.0
2016-Feb-07 15:33N 51°54' W 008°25'0 0.0
2016-Feb-07 14:32N 51°54' W 008°25'0 0.0
2016-Feb-07 13:32N 51°54' W 008°25'0 0.0
2016-Feb-07 12:31N 51°54' W 008°25'0 0.0
2016-Feb-07 11:31N 51°54' W 008°25'0 0.0
2016-Feb-07 10:31N 51°54' W 008°25'0 0.0
2016-Feb-07 09:33N 51°54' W 008°25'0 0.0
2016-Feb-07 08:33N 51°54' W 008°25'0 0.0
2016-Feb-07 07:29N 51°54' W 008°25'0 0.0
2016-Feb-07 06:32N 51°54' W 008°25'0 0.0
2016-Feb-07 05:28N 51°54' W 008°25'0 0.0
2016-Feb-07 04:31N 51°54' W 008°25'0 0.0
2016-Feb-07 03:28N 51°54' W 008°25'0 0.0
2016-Feb-07 02:33N 51°54' W 008°25'0 0.0
2016-Feb-07 01:33N 51°54' W 008°25'0 0.0
2016-Feb-07 00:32N 51°54' W 008°25'0 0.0
2016-Feb-06 23:33N 51°54' W 008°25'0 0.0
2016-Feb-06 22:33N 51°54' W 008°25'0 0.0
2016-Feb-06 21:33N 51°54' W 008°25'0 0.0
2016-Feb-06 20:33N 51°54' W 008°25'0 0.0
2016-Feb-06 19:33N 51°54' W 008°25'0 0.0
2016-Feb-06 18:34N 51°54' W 008°25'0 0.0
2016-Feb-06 17:33N 51°54' W 008°25'4 3.9
2016-Feb-06 16:33N 51°52' W 008°20'6 6.2
2016-Feb-06 15:33N 51°46' W 008°15'1 1.0
2016-Feb-06 14:33N 51°46' W 008°17'0 0.0
2016-Feb-06 13:34N 51°46' W 008°17'0 0.0
2016-Feb-06 12:33N 51°46' W 008°17'0 0.1
2016-Feb-06 11:34N 51°46' W 008°17'0 0.0
2016-Feb-06 10:34N 51°46' W 008°17'0 0.0
2016-Feb-06 09:33N 51°46' W 008°17'0 0.0
2016-Feb-06 08:34N 51°46' W 008°17'0 0.0
2016-Feb-06 07:34N 51°46' W 008°17'0 0.0
2016-Feb-06 06:33N 51°46' W 008°17'0 0.0
2016-Feb-06 05:34N 51°46' W 008°17'1 0.6
2016-Feb-06 04:33N 51°47' W 008°16'1212.2
2016-Feb-06 03:34N 51°38' W 008°03'1413.5
2016-Feb-06 02:33N 51°28' W 007°47'27011.5
2016-Feb-05 03:04N 50°26' W 000°49'814.9
2016-Feb-05 02:33N 50°28' W 000°37'2115.3
2016-Feb-05 01:11N 50°31' W 000°05'1015.7
2016-Feb-05 00:33N 50°34' E 000°10'4515.1
2016-Feb-04 21:33N 50°56' E 001°13'1413.7
2016-Feb-04 20:34N 51°05' E 001°28'1414.2
2016-Feb-04 19:33N 51°14' E 001°46'1515.1
2016-Feb-04 18:34N 51°27' E 001°59'1615.7
2016-Feb-04 17:32N 51°39' E 002°17'5413.5
2016-Feb-04 13:31N 52°03' E 003°35'1313.1
2016-Feb-04 12:33N 52°02' E 003°56'8 8.0
2016-Feb-04 11:33N 51°58' E 004°07'1010.2
2016-Feb-04 10:33N 51°54' E 004°22'2 1.9
2016-Feb-04 09:31N 51°53' E 004°25'0 0.0
2016-Feb-04 08:33N 51°53' E 004°25'0 0.0
2016-Feb-04 07:30N 51°53' E 004°25'0 0.0
2016-Feb-04 06:32N 51°53' E 004°25'0 0.0
2016-Feb-04 05:32N 51°53' E 004°25'0 0.0
2016-Feb-04 04:32N 51°53' E 004°25'0 0.0
2016-Feb-04 03:31N 51°53' E 004°25'0 0.0
2016-Feb-04 02:31N 51°53' E 004°25'0 0.0
2016-Feb-04 01:33N 51°53' E 004°25'0 0.0
2016-Feb-04 00:33N 51°53' E 004°25'0 0.0
2016-Feb-03 23:29N 51°53' E 004°25'0 0.0
2016-Feb-03 22:32N 51°53' E 004°25'0 0.0
2016-Feb-03 21:32N 51°53' E 004°25'0 0.4
2016-Feb-03 20:33N 51°53' E 004°24'9 9.5
2016-Feb-03 19:33N 51°57' E 004°10'5 4.7
2016-Feb-03 18:33N 51°57' E 004°03'0 0.0
2016-Feb-03 17:33N 51°57' E 004°03'0 0.0
2016-Feb-03 16:32N 51°57' E 004°03'0 0.0
2016-Feb-03 15:32N 51°57' E 004°03'0 0.0
2016-Feb-03 14:31N 51°57' E 004°03'0 0.0
2016-Feb-03 13:28N 51°57' E 004°03'0 0.0
2016-Feb-03 12:33N 51°57' E 004°03'0 0.0
2016-Feb-03 11:33N 51°57' E 004°03'0 0.0
2016-Feb-03 10:32N 51°57' E 004°03'2 1.8
2016-Feb-03 09:33N 51°58' E 003°60'1 0.6
2016-Feb-03 08:31N 51°57' E 004°00'0 0.0
2016-Feb-03 07:21N 51°57' E 004°00'0 0.0
2016-Feb-03 06:33N 51°57' E 004°00'0 0.0
2016-Feb-03 05:33N 51°57' E 004°00'0 0.1
2016-Feb-03 04:33N 51°57' E 004°00'2 2.3
2016-Feb-03 03:34N 51°57' E 004°04'0 0.0
2016-Feb-03 02:28N 51°57' E 004°04'0 0.0
2016-Feb-03 01:31N 51°57' E 004°04'0 0.0
2016-Feb-03 00:33N 51°57' E 004°04'0 0.0
2016-Feb-02 23:33N 51°57' E 004°04'0 0.0
2016-Feb-02 22:32N 51°57' E 004°04'0 0.0
2016-Feb-02 21:32N 51°57' E 004°04'1 0.6
2016-Feb-02 20:33N 51°57' E 004°05'1 1.3
2016-Feb-02 19:31N 51°58' E 004°03'0 0.0
2016-Feb-02 18:30N 51°58' E 004°03'0 0.0
2016-Feb-02 17:30N 51°58' E 004°03'0 0.0
2016-Feb-02 16:32N 51°58' E 004°03'0 0.0
2016-Feb-02 15:32N 51°58' E 004°03'0 0.0
2016-Feb-02 14:29N 51°58' E 004°03'0 0.0
2016-Feb-02 13:28N 51°58' E 004°03'0 0.0
2016-Feb-02 12:31N 51°58' E 004°03'0 0.0
2016-Feb-02 11:33N 51°58' E 004°03'0 0.0
2016-Feb-02 10:33N 51°58' E 004°03'0 0.0
2016-Feb-02 09:32N 51°58' E 004°03'0 0.0
2016-Feb-02 08:32N 51°58' E 004°03'0 0.0
2016-Feb-02 07:34N 51°58' E 004°03'5 5.3
2016-Feb-02 06:34N 51°57' E 004°12'8 8.5
2016-Feb-02 05:33N 51°53' E 004°24'1 0.6
2016-Feb-02 04:34N 51°53' E 004°25'0 0.0
2016-Feb-02 03:31N 51°53' E 004°25'0 0.0
2016-Feb-02 02:31N 51°53' E 004°25'0 0.0
2016-Feb-02 01:30N 51°53' E 004°25'0 0.0
2016-Feb-02 00:33N 51°53' E 004°25'0 0.0
2016-Feb-01 23:33N 51°53' E 004°25'0 0.0
2016-Feb-01 22:32N 51°53' E 004°25'0 0.0
2016-Feb-01 21:32N 51°53' E 004°25'0 0.0
2016-Feb-01 20:28N 51°53' E 004°25'0 0.0
2016-Feb-01 19:31N 51°53' E 004°25'0 0.0
2016-Feb-01 18:33N 51°53' E 004°25'0 0.0
2016-Feb-01 17:33N 51°53' E 004°25'0 0.0
2016-Feb-01 16:33N 51°53' E 004°25'1 0.7
2016-Feb-01 15:33N 51°53' E 004°24'7 7.2
2016-Feb-01 14:33N 51°56' E 004°13'1110.8
2016-Feb-01 13:33N 51°60' E 003°57'1010.0
2016-Feb-01 12:33N 51°58' E 003°41'5010.0
2016-Feb-01 07:33N 51°38' E 002°27'1515.0
2016-Feb-01 06:33N 51°27' E 002°12'1515.0
2016-Feb-01 05:34N 51°13' E 002°01'1616.2
2016-Feb-01 04:34N 51°03' E 001°41'1616.0
2016-Feb-01 03:33N 50°50' E 001°26'34312.1
2016-Jan-30 23:08N 51°22' W 007°39'814.5
2016-Jan-30 22:34N 51°28' W 007°48'1514.5
2016-Jan-30 21:34N 51°38' W 008°04'1312.7
2016-Jan-30 20:34N 51°48' W 008°16'8 7.7
2016-Jan-30 19:34N 51°54' W 008°24'0 0.4
2016-Jan-30 18:32N 51°54' W 008°25'0 0.0
2016-Jan-30 17:32N 51°54' W 008°25'0 0.0
2016-Jan-30 16:28N 51°54' W 008°25'0 0.0
2016-Jan-30 15:31N 51°54' W 008°25'0 0.0
2016-Jan-30 14:33N 51°54' W 008°25'0 0.0
2016-Jan-30 13:33N 51°54' W 008°25'0 0.0
2016-Jan-30 12:32N 51°54' W 008°25'0 0.0
2016-Jan-30 11:32N 51°54' W 008°25'0 0.0
2016-Jan-30 10:31N 51°54' W 008°25'0 0.0
2016-Jan-30 09:31N 51°54' W 008°25'0 0.0
2016-Jan-30 08:31N 51°54' W 008°25'0 0.0
2016-Jan-30 07:33N 51°54' W 008°25'0 0.0
2016-Jan-30 06:33N 51°54' W 008°25'0 0.0
2016-Jan-30 05:32N 51°54' W 008°25'0 0.0
2016-Jan-30 04:32N 51°54' W 008°25'0 0.0
2016-Jan-30 03:31N 51°54' W 008°25'0 0.0
2016-Jan-30 02:31N 51°54' W 008°25'0 0.0
2016-Jan-30 01:31N 51°54' W 008°25'0 0.0
2016-Jan-30 00:33N 51°54' W 008°25'0 0.0
2016-Jan-29 23:33N 51°54' W 008°25'0 0.0
2016-Jan-29 22:32N 51°54' W 008°25'0 0.0
2016-Jan-29 21:32N 51°54' W 008°25'0 0.0
2016-Jan-29 20:31N 51°54' W 008°25'0 0.0
2016-Jan-29 19:31N 51°54' W 008°25'0 0.0
2016-Jan-29 18:31N 51°54' W 008°25'0 0.0
2016-Jan-29 17:30N 51°54' W 008°25'0 0.0
2016-Jan-29 16:33N 51°54' W 008°25'0 0.0
2016-Jan-29 15:32N 51°54' W 008°25'0 0.0
2016-Jan-29 14:32N 51°54' W 008°25'0 0.0
2016-Jan-29 13:31N 51°54' W 008°25'0 0.0
2016-Jan-29 12:31N 51°54' W 008°25'0 0.0
2016-Jan-29 11:31N 51°54' W 008°25'0 0.0
2016-Jan-29 10:33N 51°54' W 008°25'0 0.0
2016-Jan-29 09:33N 51°54' W 008°25'0 0.0
2016-Jan-29 08:32N 51°54' W 008°25'0 0.0
2016-Jan-29 07:32N 51°54' W 008°25'0 0.0
2016-Jan-29 06:31N 51°54' W 008°25'  

Dump ship's entire track history